cuban-play.com alexa rank chart, cuban-play.com alexa rank daily changes

cuban-play.com alexa rank chart, cuban-play.com alexa rank daily changes

cuban-play.com
Actual rank:
123 978

RANK HISTORY

Date Rank Diff
2017/06/26 123 978 +3 817
2017/06/25 120 161 -3 195
2017/06/24 123 356 -1 179
2017/06/23 124 535 -560
2017/06/22 125 095 +2 158
2017/06/21 122 937 -2 377
2017/06/20 125 314 +1 625
2017/06/19 123 689 -2 189
2017/06/18 125 878 +814
2017/06/17 125 064 -2 521
2017/06/16 127 585 -1 929
2017/06/15 129 514 +2 457
2017/06/14 127 057 +54
2017/06/13 127 003 +512
2017/06/12 126 491 +555
2017/06/11 125 936 -973
2017/06/10 126 909 -257
2017/06/09 127 166 -2 174
2017/06/08 129 340 +1 322
2017/06/07 128 018 -2 829
2017/06/06 130 847 +1 211
2017/06/05 129 636 -2 081
2017/06/04 131 717 +355
2017/06/03 131 362 -2 264
2017/06/02 133 626 -1 491
2017/06/01 135 117 -1 388
2017/05/31 136 505 -3 057
2017/05/30 139 562 -917
2017/05/29 140 479 -2 177
2017/05/28 142 656 +129
2017/05/27 142 527 -1 809
2017/05/26 144 336 -2 411
2017/05/25 146 747 -2 559
2017/05/24 149 306 -3 259
2017/05/23 152 565 +1 898
2017/05/22 150 667 +883
2017/05/21 149 784 -270
2017/05/20 150 054 -223
2017/05/19 150 277 +2 421
2017/05/18 147 856 +1 092
2017/05/17 146 764 +3 184
2017/05/16 143 580 +8 912
2017/05/15 134 668 -2 775
2017/05/14 137 443 +2 105
2017/05/13 135 338 +1 103
2017/05/12 134 235 +2 436
2017/05/11 131 799 +605
2017/05/10 131 194 +2 113
2017/05/09 129 081 +2 356
2017/05/08 126 725 -1 199
2017/05/07 127 924 +492
2017/05/06 127 432 -892
2017/05/05 128 324 +1 017
2017/05/04 127 307 -4 143
2017/05/03 131 450 +1 829
2017/05/02 129 621 +1 082
2017/05/01 128 539 -751
2017/04/30 129 290 -1 480
2017/04/29 130 770 -131
2017/04/28 130 901 -3 223
2017/04/27 134 124

WIDGET FOR YOUR SITE

DOMAINS WITH THE NEAREST RANK

Domain Rank
www.gov.tw 123 973
opposities.com 123 974
bonbon.hr 123 975
webbikeworld.com 123 976
nakonu.com 123 977
cuban-play.com 123 978
junglearcade.com 123 979
theinsidersnet.com 123 980
92-tv.info 123 981
use-in-a-sentence.com 123 982
atspace.com 123 983

DOMAINS WITH THE NEAREST RANK BY TLD .com

Domain Rank
newbelgium.com 123 971
glympse.com 123 972
opposities.com 123 974
webbikeworld.com 123 976
nakonu.com 123 977
cuban-play.com 123 978
junglearcade.com 123 979
theinsidersnet.com 123 980
use-in-a-sentence.com 123 982
atspace.com 123 983
djicorp.com 123 985